Bookmark and Share
Track history (hours):
 

Hyundai Dominion

Last reported at 2014-Apr-16 07:33 UTC. Time now 2014-Apr-16 07:37 UTC.
Position N 29°46' E 122°32'.

Length 304 m; draft 8.9 m.

Type: Ship (hazmat cat A). MMSI: 636090990.

NotesDate/timePositionNaut miles runAvg speedWind from/ knotsBaromVisibWave heightAir tempDewpointWater temp
2014-Apr-16 07:33N 29°46' E 122°32'0 0.3
2014-Apr-16 06:32N 29°47' E 122°32'0 0.1
2014-Apr-16 05:33N 29°47' E 122°32'0 0.0
2014-Apr-16 04:33N 29°47' E 122°32'0 0.0
2014-Apr-16 03:33N 29°47' E 122°32'0 0.0
2014-Apr-16 02:33N 29°47' E 122°32'0 0.1
2014-Apr-16 01:33N 29°47' E 122°32'0 0.0
2014-Apr-16 00:33N 29°46' E 122°32'1 1.1
2014-Apr-15 23:33N 29°46' E 122°33'3812.5
2014-Apr-15 20:30N 30°20' E 122°50'3316.7
2014-Apr-15 18:33N 30°33' E 122°16'10 0.9
2014-Apr-15 07:34N 30°36' E 122°05'8 7.5
2014-Apr-15 06:31N 30°34' E 122°14'10 9.7
2014-Apr-15 05:30N 30°32' E 122°25'  
2014-Apr-12 03:10N 30°37' E 122°47'22415.9
2014-Apr-11 13:04N 34°19' E 122°18'  
2014-Apr-08 16:12N 35°49' E 120°56'0 0.1
2014-Apr-08 15:30N 35°49' E 120°56'0 0.0
2014-Apr-08 14:18N 35°49' E 120°56'0 0.0
2014-Apr-08 11:30N 35°49' E 120°56'0 0.0
2014-Apr-08 10:30N 35°49' E 120°56'0 0.0
2014-Apr-08 08:24N 35°49' E 120°56'0 0.0
2014-Apr-07 21:18N 35°49' E 120°56'0 0.1
2014-Apr-07 20:30N 35°49' E 120°56'0 0.0
2014-Apr-07 19:24N 35°49' E 120°56'0 0.0
2014-Apr-07 10:24N 35°49' E 120°56'  

Dump ship's entire track history

sailing weather and tide predictions

Hyundai Dominion — A8IK7 — position and weather